createdAt,value
2023-02-13T06:11:40.433Z,8.30
2023-02-13T06:14:08.367Z,7.40
2023-02-13T06:16:37.764Z,7.80
2023-02-13T06:19:05.012Z,8.10
2023-02-13T06:21:33.328Z,8.00
2023-02-13T06:24:00.875Z,8.10
2023-02-13T06:26:27.449Z,7.20
2023-02-13T06:28:54.469Z,8.30
2023-02-13T06:31:22.630Z,8.20
2023-02-13T06:33:54.111Z,7.60
2023-02-13T06:36:24.324Z,7.00
2023-02-13T06:38:52.081Z,8.60
2023-02-13T06:41:19.695Z,10.30
2023-02-13T06:43:47.411Z,11.20
2023-02-13T06:46:14.485Z,9.10
2023-02-13T06:48:44.067Z,8.00
2023-02-13T06:51:11.468Z,7.90
2023-02-13T06:53:44.138Z,8.90
2023-02-13T06:56:11.759Z,10.50
2023-02-13T06:58:39.626Z,9.70
2023-02-13T07:01:07.838Z,10.00
2023-02-13T07:03:36.651Z,9.50
2023-02-13T07:06:04.382Z,10.10
2023-02-13T07:08:35.232Z,10.50
2023-02-13T07:11:05.736Z,13.70
2023-02-13T07:13:33.576Z,7.50
2023-02-13T07:16:01.227Z,13.80
2023-02-13T07:18:30.137Z,10.10
2023-02-13T07:21:00.578Z,9.50
2023-02-13T07:23:30.897Z,9.00
2023-02-13T07:26:00.058Z,9.00
2023-02-13T07:28:28.150Z,12.20
2023-02-13T07:30:56.549Z,10.00
2023-02-13T07:33:26.229Z,8.90
2023-02-13T07:35:53.901Z,10.50
2023-02-13T07:38:24.731Z,9.60
2023-02-13T07:40:54.390Z,10.10
2023-02-13T07:43:21.983Z,9.00
2023-02-13T07:45:49.739Z,9.40
2023-02-13T07:48:18.957Z,12.50
2023-02-13T07:50:50.608Z,10.30
2023-02-13T07:53:19.872Z,10.90
2023-02-13T07:55:52.015Z,12.40
2023-02-13T08:01:02.058Z,9.80
2023-02-13T08:03:37.159Z,10.50
2023-02-13T08:06:22.761Z,14.40
2023-02-13T08:09:39.745Z,10.10
2023-02-13T08:12:08.828Z,10.80
2023-02-13T08:14:35.772Z,13.70
2023-02-13T08:17:02.679Z,11.10
2023-02-13T08:19:30.869Z,12.50
2023-02-13T08:22:02.648Z,11.70
2023-02-13T08:24:32.404Z,13.30
2023-02-13T08:27:15.721Z,17.20
2023-02-13T08:33:34.079Z,13.90
2023-02-13T08:36:22.278Z,16.20
2023-02-13T08:39:06.186Z,16.40
2023-02-13T08:44:53.460Z,13.10
2023-02-13T08:47:42.098Z,12.50
2023-02-13T08:50:32.288Z,16.00
2023-02-13T08:53:15.616Z,16.60
2023-02-13T08:56:05.698Z,14.50
2023-02-13T08:59:13.910Z,14.00
2023-02-13T09:01:54.624Z,13.80
2023-02-13T09:04:32.986Z,11.90
2023-02-13T09:07:27.386Z,15.00
2023-02-13T09:10:06.114Z,16.40
2023-02-13T09:12:38.486Z,16.20
2023-02-13T09:15:22.227Z,14.40
2023-02-13T09:18:16.736Z,15.40
2023-02-13T09:21:07.983Z,16.10
2023-02-13T09:23:58.204Z,16.20
2023-02-13T09:26:31.203Z,16.60
2023-02-13T09:29:00.776Z,15.90
2023-02-13T09:31:29.775Z,17.60
2023-02-13T09:34:00.814Z,15.70
2023-02-13T09:36:38.761Z,17.40
2023-02-13T09:41:41.743Z,16.70
2023-02-13T09:44:38.600Z,18.60
2023-02-13T09:47:38.417Z,18.50
2023-02-13T09:57:22.366Z,14.10
2023-02-13T10:00:14.561Z,13.10
2023-02-13T10:03:03.368Z,16.40
2023-02-13T10:05:44.250Z,14.80
2023-02-13T10:08:44.760Z,15.30
2023-02-13T10:11:54.386Z,14.60
2023-02-13T10:14:59.162Z,12.90
2023-02-13T10:17:35.843Z,13.80
2023-02-13T10:20:16.279Z,13.60
2023-02-13T10:26:21.747Z,12.60
2023-02-13T10:29:24.126Z,11.70
2023-02-13T10:32:06.761Z,12.10
2023-02-13T10:34:41.862Z,14.90
2023-02-13T10:37:20.681Z,11.00
2023-02-13T10:39:52.610Z,12.60
2023-02-13T10:42:38.762Z,12.90
2023-02-13T10:45:53.368Z,12.60
2023-02-13T10:48:27.807Z,10.60
2023-02-13T10:51:38.028Z,14.90
2023-02-13T10:55:02.746Z,15.80
2023-02-13T10:58:10.120Z,16.80
2023-02-13T11:00:44.529Z,15.10
2023-02-13T11:03:24.772Z,15.50
2023-02-13T11:05:53.780Z,17.20
2023-02-13T11:08:35.661Z,16.50
2023-02-13T11:11:03.975Z,13.20
2023-02-13T11:13:36.769Z,12.00
2023-02-13T11:16:17.740Z,13.90
2023-02-13T11:18:49.226Z,12.40
2023-02-13T11:21:23.824Z,14.20
2023-02-13T11:23:54.042Z,13.10
2023-02-13T11:26:31.794Z,14.30
2023-02-13T11:32:29.618Z,14.10
2023-02-13T11:35:49.585Z,14.20
2023-02-13T11:38:19.848Z,17.30
2023-02-13T11:41:04.923Z,18.10
2023-02-13T11:43:53.213Z,14.10
2023-02-13T11:46:25.644Z,25.20
2023-02-13T11:49:02.694Z,10.80
2023-02-13T11:52:05.343Z,12.30
2023-02-13T11:54:43.365Z,13.60
2023-02-13T11:57:25.921Z,8.80
2023-02-13T12:00:32.507Z,12.90
2023-02-13T12:03:11.259Z,13.00
2023-02-13T12:05:55.782Z,11.70
2023-02-13T12:14:37.092Z,10.70
2023-02-13T12:21:04.222Z,9.90
2023-02-13T12:23:50.464Z,9.70
2023-02-13T12:26:20.708Z,8.30
2023-02-13T12:29:23.613Z,8.80
2023-02-13T12:32:28.544Z,11.70
2023-02-13T12:35:31.023Z,8.50
2023-02-13T12:38:26.844Z,8.60
2023-02-13T12:41:43.563Z,8.70
2023-02-13T12:44:53.416Z,8.20
2023-02-13T12:47:31.861Z,11.40
2023-02-13T12:50:19.533Z,8.30
2023-02-13T12:53:07.700Z,10.70
2023-02-13T12:55:43.003Z,9.50
2023-02-13T12:58:25.546Z,9.60
2023-02-13T13:01:02.266Z,7.90
2023-02-13T13:03:45.986Z,6.90
2023-02-13T13:06:20.434Z,7.70
2023-02-13T13:09:30.579Z,7.10
2023-02-13T13:12:20.844Z,7.50
2023-02-13T13:14:59.259Z,8.00
2023-02-13T13:17:47.898Z,8.30
2023-02-13T13:20:27.294Z,8.70
2023-02-13T13:23:12.883Z,8.40
2023-02-13T13:26:07.998Z,8.50
2023-02-13T13:28:40.433Z,7.00
2023-02-13T13:31:07.410Z,9.00
2023-02-13T13:36:46.531Z,6.80
2023-02-13T13:39:26.182Z,6.30
2023-02-13T13:42:24.310Z,8.20
2023-02-13T13:45:18.583Z,7.70
2023-02-13T13:47:57.169Z,10.10
2023-02-13T13:50:26.994Z,8.90
2023-02-13T13:53:22.750Z,10.10
2023-02-13T13:55:49.559Z,8.50
2023-02-13T13:58:42.026Z,8.70
2023-02-13T14:01:21.685Z,7.40
2023-02-13T14:03:55.572Z,8.30
2023-02-13T14:06:28.039Z,7.20
2023-02-13T14:09:05.606Z,8.20
2023-02-13T14:11:37.091Z,7.60
2023-02-13T14:17:04.213Z,6.30
2023-02-13T14:19:38.008Z,5.80
2023-02-13T14:22:28.165Z,7.50
2023-02-13T14:24:59.246Z,5.10
2023-02-13T14:27:38.375Z,7.70
2023-02-13T14:30:06.806Z,5.30
2023-02-13T14:32:36.619Z,5.50
2023-02-13T14:35:16.986Z,6.90
2023-02-13T14:38:09.025Z,8.10
2023-02-13T14:40:48.537Z,16.50
2023-02-13T14:43:30.746Z,16.90
2023-02-13T14:46:24.056Z,14.40
2023-02-13T14:49:02.539Z,13.30
2023-02-13T14:51:40.806Z,15.90
2023-02-13T14:54:28.166Z,16.90
2023-02-13T14:57:16.516Z,19.30
2023-02-13T15:03:19.227Z,12.00
2023-02-13T15:05:50.587Z,16.00
2023-02-13T15:10:52.740Z,10.80
2023-02-13T15:13:29.368Z,8.50
2023-02-13T15:16:14.865Z,8.60
2023-02-13T15:18:46.306Z,8.60
2023-02-13T15:21:19.816Z,7.80
2023-02-13T15:23:50.611Z,6.20
2023-02-13T15:26:25.814Z,7.70
2023-02-13T15:29:04.578Z,6.70
2023-02-13T15:31:37.612Z,7.50
2023-02-13T15:34:25.111Z,7.20
2023-02-13T15:36:53.621Z,6.20
2023-02-13T15:39:27.283Z,6.30
2023-02-13T15:41:56.358Z,6.90
2023-02-13T15:45:08.330Z,7.90
2023-02-13T15:47:46.946Z,7.90
2023-02-13T15:50:41.397Z,6.80
2023-02-13T15:53:19.466Z,6.70
2023-02-13T15:56:04.536Z,8.20
2023-02-13T15:58:33.852Z,8.60
2023-02-13T16:01:05.161Z,7.60
2023-02-13T16:03:45.661Z,9.10
2023-02-13T16:06:15.076Z,6.30
2023-02-13T16:08:56.036Z,7.70
2023-02-13T16:11:23.258Z,7.50
2023-02-13T16:14:29.514Z,7.10
2023-02-13T16:17:05.409Z,7.50
2023-02-13T16:19:58.675Z,7.50
2023-02-13T16:22:35.353Z,7.00
2023-02-13T16:25:12.348Z,7.20
2023-02-13T16:27:50.490Z,7.70
2023-02-13T16:30:38.396Z,8.30
2023-02-13T16:33:19.443Z,9.40
2023-02-13T16:35:58.524Z,10.40
2023-02-13T16:38:52.442Z,8.30
2023-02-13T16:41:31.660Z,8.80
2023-02-13T16:44:05.022Z,7.30
2023-02-13T16:46:42.229Z,6.30
2023-02-13T16:49:15.742Z,7.00
2023-02-13T16:52:12.262Z,6.30
2023-02-13T16:54:47.971Z,7.80
2023-02-13T16:57:33.283Z,7.30
2023-02-13T17:00:25.193Z,12.00
2023-02-13T17:03:00.731Z,15.30
2023-02-13T17:05:29.946Z,13.60
2023-02-13T17:07:59.822Z,19.50
2023-02-13T17:13:30.898Z,21.00
2023-02-13T17:16:22.368Z,20.80
2023-02-13T17:18:49.984Z,19.90
2023-02-13T17:21:19.241Z,16.90
2023-02-13T17:23:51.600Z,19.80
2023-02-13T17:26:19.295Z,17.70
2023-02-13T17:35:18.592Z,20.90
2023-02-13T17:37:46.974Z,19.80
2023-02-13T17:40:18.529Z,24.30
2023-02-13T17:42:47.752Z,19.30
2023-02-13T17:45:19.389Z,18.10
2023-02-13T17:47:54.214Z,15.20
2023-02-13T17:50:23.169Z,17.00
2023-02-13T17:52:51.705Z,14.40
2023-02-13T17:55:25.288Z,11.10
2023-02-13T17:57:57.451Z,10.10
2023-02-13T18:00:29.336Z,10.90
